sensor_id;sensor_type;location;lat;lon;timestamp;pressure;altitude;pressure_sealevel;temperature;humidity
22775;BME280;11554;51.106;3.684;2023-03-21T00:00:00;101614.63;;;8.87;100.0
22775;BME280;11554;51.106;3.684;2023-03-21T00:05:00;101608.4;;;8.85;100.0
22775;BME280;11554;51.106;3.684;2023-03-21T00:10:00;101599.87999999999;;;8.86;100.0
22775;BME280;11554;51.106;3.684;2023-03-21T00:15:00;101595.86;;;8.85;100.0
22775;BME280;11554;51.106;3.684;2023-03-21T00:20:00;101588.15;;;8.86;100.0
22775;BME280;11554;51.106;3.684;2023-03-21T00:25:00;101586.75;;;8.87;100.0
22775;BME280;11554;51.106;3.684;2023-03-21T00:30:00;101582.68000000001;;;8.87;100.0
22775;BME280;11554;51.106;3.684;2023-03-21T00:35:00;101580.98;;;8.86;100.0
22775;BME280;11554;51.106;3.684;2023-03-21T00:40:00;101576.2;;;8.88;100.0
22775;BME280;11554;51.106;3.684;2023-03-21T00:45:00;101571.28;;;8.88;100.0
22775;BME280;11554;51.106;3.684;2023-03-21T00:50:00;101568.55;;;8.88;100.0
22775;BME280;11554;51.106;3.684;2023-03-21T00:55:00;101556.62;;;8.89;100.0
22775;BME280;11554;51.106;3.684;2023-03-21T01:00:00;101555.84999999999;;;8.89;100.0
22775;BME280;11554;51.106;3.684;2023-03-21T01:05:00;101547.51;;;8.89;100.0
22775;BME280;11554;51.106;3.684;2023-03-21T01:10:00;101540.22;;;8.90;100.0
22775;BME280;11554;51.106;3.684;2023-03-21T01:15:00;101532.6;;;8.86;100.0
22775;BME280;11554;51.106;3.684;2023-03-21T01:20:00;101527.67;;;8.84;100.0
22775;BME280;11554;51.106;3.684;2023-03-21T01:25:00;101516.95999999999;;;8.80;100.0
22775;BME280;11554;51.106;3.684;2023-03-21T01:30:00;101510.74;;;8.75;100.0
22775;BME280;11554;51.106;3.684;2023-03-21T01:35:00;101495.22;;;8.77;100.0
22775;BME280;11554;51.106;3.684;2023-03-21T01:40:00;101482.48;;;8.77;100.0
22775;BME280;11554;51.106;3.684;2023-03-21T01:45:02;101486.6;;;8.77;100.0
22775;BME280;11554;51.106;3.684;2023-03-21T01:50:00;101484.56;;;8.80;100.0
22775;BME280;11554;51.106;3.684;2023-03-21T01:55:00;101476.45;;;8.82;100.0
22775;BME280;11554;51.106;3.684;2023-03-21T02:00:00;101469.25;;;8.81;100.0
22775;BME280;11554;51.106;3.684;2023-03-21T02:05:00;101463.76000000001;;;8.78;100.0
22775;BME280;11554;51.106;3.684;2023-03-21T02:10:00;101455.26999999999;;;8.73;100.0
22775;BME280;11554;51.106;3.684;2023-03-21T02:15:00;101443.92;;;8.66;100.0
22775;BME280;11554;51.106;3.684;2023-03-21T02:35:03;101426.48000000001;;;8.62;100.0
22775;BME280;11554;51.106;3.684;2023-03-21T02:40:03;101422.27;;;8.66;100.0
22775;BME280;11554;51.106;3.684;2023-03-21T02:45:01;101413.92;;;8.69;100.0
22775;BME280;11554;51.106;3.684;2023-03-21T02:50:02;101412.37999999999;;;8.69;100.0
22775;BME280;11554;51.106;3.684;2023-03-21T02:55:00;101404.94;;;8.71;100.0
22775;BME280;11554;51.106;3.684;2023-03-21T03:00:00;101409.63;;;8.70;100.0
22775;BME280;11554;51.106;3.684;2023-03-21T03:05:00;101406.0;;;8.73;100.0
22775;BME280;11554;51.106;3.684;2023-03-21T03:10:04;101408.64;;;8.75;100.0
22775;BME280;11554;51.106;3.684;2023-03-21T03:15:02;101411.97;;;8.77;100.0
22775;BME280;11554;51.106;3.684;2023-03-21T03:20:10;101409.25;;;8.80;100.0
22775;BME280;11554;51.106;3.684;2023-03-21T03:25:01;101406.65000000001;;;8.80;100.0
22775;BME280;11554;51.106;3.684;2023-03-21T03:30:00;101407.01000000001;;;8.83;100.0
22775;BME280;11554;51.106;3.684;2023-03-21T03:35:00;101404.6;;;8.86;100.0
22775;BME280;11554;51.106;3.684;2023-03-21T03:40:01;101405.84;;;8.88;100.0
22775;BME280;11554;51.106;3.684;2023-03-21T03:45:00;101402.17;;;8.90;100.0
22775;BME280;11554;51.106;3.684;2023-03-21T03:50:01;101395.9;;;8.89;100.0
22775;BME280;11554;51.106;3.684;2023-03-21T03:55:00;101393.14;;;8.91;100.0
22775;BME280;11554;51.106;3.684;2023-03-21T04:00:00;101389.08;;;8.92;100.0
22775;BME280;11554;51.106;3.684;2023-03-21T04:05:00;101388.16;;;8.90;100.0
22775;BME280;11554;51.106;3.684;2023-03-21T04:10:00;101388.08;;;8.87;100.0
22775;BME280;11554;51.106;3.684;2023-03-21T04:15:00;101387.05;;;8.89;100.0
22775;BME280;11554;51.106;3.684;2023-03-21T04:20:00;101374.84;;;8.93;100.0
22775;BME280;11554;51.106;3.684;2023-03-21T04:25:00;101368.07;;;8.94;100.0
22775;BME280;11554;51.106;3.684;2023-03-21T04:30:00;101366.04999999999;;;8.93;100.0
22775;BME280;11554;51.106;3.684;2023-03-21T04:35:00;101367.47;;;8.92;100.0
22775;BME280;11554;51.106;3.684;2023-03-21T04:40:00;101362.69;;;8.91;100.0
22775;BME280;11554;51.106;3.684;2023-03-21T04:45:00;101366.53;;;8.83;100.0
22775;BME280;11554;51.106;3.684;2023-03-21T04:50:00;101372.13;;;8.75;100.0
22775;BME280;11554;51.106;3.684;2023-03-21T04:55:00;101376.34000000001;;;8.70;100.0
22775;BME280;11554;51.106;3.684;2023-03-21T05:00:00;101377.98;;;8.66;100.0
22775;BME280;11554;51.106;3.684;2023-03-21T05:05:00;101380.52;;;8.65;100.0
22775;BME280;11554;51.106;3.684;2023-03-21T05:10:00;101375.19;;;8.60;100.0
22775;BME280;11554;51.106;3.684;2023-03-21T05:15:00;101356.36;;;8.59;100.0
22775;BME280;11554;51.106;3.684;2023-03-21T05:20:00;101341.69;;;8.57;100.0
22775;BME280;11554;51.106;3.684;2023-03-21T05:25:00;101339.12;;;8.55;100.0
22775;BME280;11554;51.106;3.684;2023-03-21T05:30:01;101330.22;;;8.52;100.0
22775;BME280;11554;51.106;3.684;2023-03-21T05:35:00;101323.87999999999;;;8.48;100.0
22775;BME280;11554;51.106;3.684;2023-03-21T05:40:00;101321.8;;;8.48;100.0
22775;BME280;11554;51.106;3.684;2023-03-21T05:45:00;101321.47;;;8.47;100.0
22775;BME280;11554;51.106;3.684;2023-03-21T05:50:00;101321.04000000001;;;8.46;100.0
22775;BME280;11554;51.106;3.684;2023-03-21T05:55:00;101319.18;;;8.46;100.0
22775;BME280;11554;51.106;3.684;2023-03-21T06:00:00;101320.61;;;8.45;100.0
22775;BME280;11554;51.106;3.684;2023-03-21T06:05:00;101323.71;;;8.46;100.0
22775;BME280;11554;51.106;3.684;2023-03-21T06:10:00;101320.14;;;8.48;100.0
22775;BME280;11554;51.106;3.684;2023-03-21T06:15:00;101316.58;;;8.47;100.0
22775;BME280;11554;51.106;3.684;2023-03-21T06:20:00;101318.93;;;8.48;100.0
22775;BME280;11554;51.106;3.684;2023-03-21T06:25:00;101324.3;;;8.55;100.0
22775;BME280;11554;51.106;3.684;2023-03-21T06:30:00;101323.36;;;8.56;100.0
22775;BME280;11554;51.106;3.684;2023-03-21T06:35:00;101322.28;;;8.60;100.0
22775;BME280;11554;51.106;3.684;2023-03-21T06:40:00;101322.33;;;8.66;100.0
22775;BME280;11554;51.106;3.684;2023-03-21T06:45:00;101311.06;;;8.73;100.0
22775;BME280;11554;51.106;3.684;2023-03-21T06:50:00;101308.61;;;8.81;100.0
22775;BME280;11554;51.106;3.684;2023-03-21T06:55:00;101315.61;;;8.91;100.0
22775;BME280;11554;51.106;3.684;2023-03-21T07:00:00;101307.74;;;8.95;100.0
22775;BME280;11554;51.106;3.684;2023-03-21T07:05:00;101304.63;;;8.99;100.0
22775;BME280;11554;51.106;3.684;2023-03-21T07:10:00;101301.87;;;9.06;100.0
22775;BME280;11554;51.106;3.684;2023-03-21T07:15:00;101300.67;;;9.11;100.0
22775;BME280;11554;51.106;3.684;2023-03-21T07:20:00;101293.65000000001;;;9.18;100.0
22775;BME280;11554;51.106;3.684;2023-03-21T07:25:00;101284.54000000001;;;9.28;100.0
22775;BME280;11554;51.106;3.684;2023-03-21T07:30:00;101287.87;;;9.44;100.0
22775;BME280;11554;51.106;3.684;2023-03-21T07:35:00;101290.97;;;9.61;100.0
22775;BME280;11554;51.106;3.684;2023-03-21T07:40:00;101294.81;;;9.77;100.0
22775;BME280;11554;51.106;3.684;2023-03-21T07:45:00;101289.98;;;9.96;100.0
22775;BME280;11554;51.106;3.684;2023-03-21T07:50:00;101292.14;;;10.13;100.0
22775;BME280;11554;51.106;3.684;2023-03-21T07:55:00;101281.83;;;10.24;100.0
22775;BME280;11554;51.106;3.684;2023-03-21T08:00:00;101274.31;;;10.36;100.0
22775;BME280;11554;51.106;3.684;2023-03-21T08:05:00;101270.4;;;10.49;100.0
22775;BME280;11554;51.106;3.684;2023-03-21T08:10:00;101274.32;;;10.65;100.0
22775;BME280;11554;51.106;3.684;2023-03-21T08:15:00;101261.64;;;10.80;100.0
22775;BME280;11554;51.106;3.684;2023-03-21T08:20:00;101259.11;;;11.07;100.0
22775;BME280;11554;51.106;3.684;2023-03-21T08:25:00;101252.43000000001;;;11.35;100.0
22775;BME280;11554;51.106;3.684;2023-03-21T08:30:00;101250.78;;;11.57;100.0
22775;BME280;11554;51.106;3.684;2023-03-21T08:35:00;101247.42;;;11.82;100.0
22775;BME280;11554;51.106;3.684;2023-03-21T08:40:00;101242.08;;;11.99;100.0
22775;BME280;11554;51.106;3.684;2023-03-21T08:45:00;101232.84;;;12.14;100.0
22775;BME280;11554;51.106;3.684;2023-03-21T08:50:00;101224.8;;;12.04;100.0
22775;BME280;11554;51.106;3.684;2023-03-21T08:55:00;101234.25;;;11.97;100.0
22775;BME280;11554;51.106;3.684;2023-03-21T09:00:00;101224.44;;;11.81;100.0
22775;BME280;11554;51.106;3.684;2023-03-21T09:05:00;101227.56000000001;;;11.88;100.0
22775;BME280;11554;51.106;3.684;2023-03-21T09:10:00;101222.05;;;12.13;100.0
22775;BME280;11554;51.106;3.684;2023-03-21T09:15:00;101223.39;;;12.12;100.0
22775;BME280;11554;51.106;3.684;2023-03-21T09:20:00;101244.92;;;11.99;100.0
22775;BME280;11554;51.106;3.684;2023-03-21T09:25:00;101249.95;;;11.97;100.0
22775;BME280;11554;51.106;3.684;2023-03-21T09:30:00;101255.66;;;12.03;100.0
22775;BME280;11554;51.106;3.684;2023-03-21T09:35:00;101261.19;;;12.29;100.0
22775;BME280;11554;51.106;3.684;2023-03-21T09:40:00;101258.15;;;12.72;100.0
22775;BME280;11554;51.106;3.684;2023-03-21T09:45:02;101259.33;;;13.13;100.0
22775;BME280;11554;51.106;3.684;2023-03-21T09:50:02;101258.31;;;13.15;100.0
22775;BME280;11554;51.106;3.684;2023-03-21T09:55:01;101245.76;;;13.24;100.0
22775;BME280;11554;51.106;3.684;2023-03-21T10:00:03;101250.16;;;13.41;98.19
22775;BME280;11554;51.106;3.684;2023-03-21T10:05:00;101240.7;;;13.60;97.59
22775;BME280;11554;51.106;3.684;2023-03-21T10:10:00;101244.36;;;13.48;97.23
22775;BME280;11554;51.106;3.684;2023-03-21T10:15:00;101252.88;;;13.18;96.46
22775;BME280;11554;51.106;3.684;2023-03-21T10:20:06;101265.98;;;12.93;97.92
22775;BME280;11554;51.106;3.684;2023-03-21T10:25:00;101276.61;;;12.67;97.22
22775;BME280;11554;51.106;3.684;2023-03-21T10:30:00;101275.27;;;12.58;98.9
22775;BME280;11554;51.106;3.684;2023-03-21T10:35:00;101275.06;;;13.05;98.56
22775;BME280;11554;51.106;3.684;2023-03-21T10:40:00;101271.83;;;14.32;96.37
22775;BME280;11554;51.106;3.684;2023-03-21T10:45:00;101261.43;;;15.20;93.35
22775;BME280;11554;51.106;3.684;2023-03-21T10:50:00;101251.11;;;14.99;88.68
22775;BME280;11554;51.106;3.684;2023-03-21T10:55:04;101250.14;;;14.99;89.53
22775;BME280;11554;51.106;3.684;2023-03-21T11:00:00;101245.89;;;15.16;88.68
22775;BME280;11554;51.106;3.684;2023-03-21T11:05:03;101245.89;;;15.02;88.39
22775;BME280;11554;51.106;3.684;2023-03-21T11:10:01;101245.73000000001;;;14.71;89.56
22775;BME280;11554;51.106;3.684;2023-03-21T11:15:13;101243.34;;;15.27;88.97
22775;BME280;11554;51.106;3.684;2023-03-21T11:20:01;101244.83;;;16.00;87.03
22775;BME280;11554;51.106;3.684;2023-03-21T11:25:00;101243.06;;;16.21;85.76
22775;BME280;11554;51.106;3.684;2023-03-21T11:30:01;101248.55;;;15.85;84.11
22775;BME280;11554;51.106;3.684;2023-03-21T11:35:00;101244.53;;;15.60;85.27
22775;BME280;11554;51.106;3.684;2023-03-21T11:40:05;101247.19;;;15.25;86.38
22775;BME280;11554;51.106;3.684;2023-03-21T11:45:01;101233.25;;;15.60;86.39
22775;BME280;11554;51.106;3.684;2023-03-21T11:50:00;101230.47;;;16.55;83.57
22775;BME280;11554;51.106;3.684;2023-03-21T11:55:06;101220.62;;;16.57;83.17
22775;BME280;11554;51.106;3.684;2023-03-21T12:00:02;101220.81;;;16.14;84.1
22775;BME280;11554;51.106;3.684;2023-03-21T12:05:01;101222.94;;;16.25;84.61
22775;BME280;11554;51.106;3.684;2023-03-21T12:10:07;101214.31;;;15.68;84.68
22775;BME280;11554;51.106;3.684;2023-03-21T12:15:01;101215.89;;;15.28;86.16
22775;BME280;11554;51.106;3.684;2023-03-21T12:20:05;101204.8;;;14.71;87.81
22775;BME280;11554;51.106;3.684;2023-03-21T12:25:01;101210.44;;;14.48;88.92
22775;BME280;11554;51.106;3.684;2023-03-21T12:30:06;101193.48;;;14.78;90.11
22775;BME280;11554;51.106;3.684;2023-03-21T12:35:03;101198.92;;;14.95;90.27
22775;BME280;11554;51.106;3.684;2023-03-21T12:40:03;101196.89;;;14.79;90.51
22775;BME280;11554;51.106;3.684;2023-03-21T12:45:01;101190.77;;;14.48;90.98
22775;BME280;11554;51.106;3.684;2023-03-21T12:50:01;101193.04;;;14.38;91.87
22775;BME280;11554;51.106;3.684;2023-03-21T12:55:01;101189.42;;;14.17;92.92
22775;BME280;11554;51.106;3.684;2023-03-21T13:00:02;101180.22;;;14.28;92.88
22775;BME280;11554;51.106;3.684;2023-03-21T13:05:02;101174.47;;;14.03;93.62
22775;BME280;11554;51.106;3.684;2023-03-21T13:10:00;101170.98;;;13.90;94.84
22775;BME280;11554;51.106;3.684;2023-03-21T13:15:04;101181.94;;;13.67;95.1
22775;BME280;11554;51.106;3.684;2023-03-21T13:20:00;101181.14;;;13.47;97.06
22775;BME280;11554;51.106;3.684;2023-03-21T13:25:02;101171.51;;;13.36;99.17
22775;BME280;11554;51.106;3.684;2023-03-21T13:30:01;101168.11;;;13.31;100.0
22775;BME280;11554;51.106;3.684;2023-03-21T13:35:02;101165.66;;;13.16;100.0
22775;BME280;11554;51.106;3.684;2023-03-21T13:40:01;101163.56;;;13.08;100.0
22775;BME280;11554;51.106;3.684;2023-03-21T13:45:00;101164.28;;;13.22;100.0
22775;BME280;11554;51.106;3.684;2023-03-21T13:55:00;101160.58;;;13.16;100.0
22775;BME280;11554;51.106;3.684;2023-03-21T14:05:01;101152.89;;;13.14;100.0
22775;BME280;11554;51.106;3.684;2023-03-21T14:10:00;101144.03;;;13.28;100.0
22775;BME280;11554;51.106;3.684;2023-03-21T14:15:00;101139.86;;;13.26;100.0
22775;BME280;11554;51.106;3.684;2023-03-21T14:20:01;101141.25;;;13.06;100.0
22775;BME280;11554;51.106;3.684;2023-03-21T14:25:00;101144.3;;;13.12;100.0
22775;BME280;11554;51.106;3.684;2023-03-21T14:30:00;101140.91;;;13.09;100.0
22775;BME280;11554;51.106;3.684;2023-03-21T14:35:00;101138.7;;;13.10;100.0
22775;BME280;11554;51.106;3.684;2023-03-21T14:40:01;101124.31;;;13.31;100.0
22775;BME280;11554;51.106;3.684;2023-03-21T14:45:05;101119.3;;;13.59;100.0
22775;BME280;11554;51.106;3.684;2023-03-21T14:50:00;101120.4;;;13.51;100.0
22775;BME280;11554;51.106;3.684;2023-03-21T14:55:01;101121.48;;;13.48;100.0
22775;BME280;11554;51.106;3.684;2023-03-21T15:00:00;101111.54000000001;;;13.30;100.0
22775;BME280;11554;51.106;3.684;2023-03-21T15:05:05;101107.39;;;13.28;100.0
22775;BME280;11554;51.106;3.684;2023-03-21T15:10:02;101099.75;;;13.17;100.0
22775;BME280;11554;51.106;3.684;2023-03-21T15:15:00;101107.51000000001;;;13.02;100.0
22775;BME280;11554;51.106;3.684;2023-03-21T15:20:00;101104.13;;;13.19;100.0
22775;BME280;11554;51.106;3.684;2023-03-21T15:25:00;101107.83;;;13.25;100.0
22775;BME280;11554;51.106;3.684;2023-03-21T15:30:00;101099.19;;;13.40;100.0
22775;BME280;11554;51.106;3.684;2023-03-21T15:35:03;101111.8;;;13.56;100.0
22775;BME280;11554;51.106;3.684;2023-03-21T15:40:06;101104.85;;;13.64;100.0
22775;BME280;11554;51.106;3.684;2023-03-21T15:45:01;101088.58;;;13.72;100.0
22775;BME280;11554;51.106;3.684;2023-03-21T15:50:00;101095.42;;;13.53;100.0
22775;BME280;11554;51.106;3.684;2023-03-21T15:55:00;101092.04999999999;;;13.29;100.0
22775;BME280;11554;51.106;3.684;2023-03-21T16:00:02;101093.42;;;13.19;100.0
22775;BME280;11554;51.106;3.684;2023-03-21T16:05:01;101087.42;;;13.29;100.0
22775;BME280;11554;51.106;3.684;2023-03-21T16:10:02;101081.84999999999;;;13.30;100.0
22775;BME280;11554;51.106;3.684;2023-03-21T16:15:00;101085.55;;;13.36;100.0
22775;BME280;11554;51.106;3.684;2023-03-21T16:20:00;101087.87;;;13.35;100.0
22775;BME280;11554;51.106;3.684;2023-03-21T16:25:00;101086.99;;;13.31;100.0
22775;BME280;11554;51.106;3.684;2023-03-21T16:30:00;101079.94;;;13.25;100.0
22775;BME280;11554;51.106;3.684;2023-03-21T16:35:00;101085.13;;;13.11;100.0
22775;BME280;11554;51.106;3.684;2023-03-21T16:40:00;101083.7;;;12.95;100.0
22775;BME280;11554;51.106;3.684;2023-03-21T16:45:00;101086.03;;;12.83;100.0
22775;BME280;11554;51.106;3.684;2023-03-21T16:50:00;101092.57;;;12.73;100.0
22775;BME280;11554;51.106;3.684;2023-03-21T16:55:00;101093.89;;;12.64;100.0
22775;BME280;11554;51.106;3.684;2023-03-21T17:00:00;101088.22;;;12.58;100.0
22775;BME280;11554;51.106;3.684;2023-03-21T17:05:00;101089.58;;;12.53;100.0
22775;BME280;11554;51.106;3.684;2023-03-21T17:10:00;101086.77;;;12.46;100.0
22775;BME280;11554;51.106;3.684;2023-03-21T17:15:00;101084.6;;;12.44;100.0
22775;BME280;11554;51.106;3.684;2023-03-21T17:20:00;101088.04000000001;;;12.48;100.0
22775;BME280;11554;51.106;3.684;2023-03-21T17:25:00;101092.14;;;12.65;100.0
22775;BME280;11554;51.106;3.684;2023-03-21T17:30:00;101094.43;;;12.71;100.0
22775;BME280;11554;51.106;3.684;2023-03-21T17:35:00;101097.17000000001;;;12.44;100.0
22775;BME280;11554;51.106;3.684;2023-03-21T17:40:00;101104.72;;;12.19;100.0
22775;BME280;11554;51.106;3.684;2023-03-21T17:45:00;101096.26;;;11.90;100.0
22775;BME280;11554;51.106;3.684;2023-03-21T17:50:00;101100.7;;;11.70;100.0
22775;BME280;11554;51.106;3.684;2023-03-21T17:55:00;101102.65000000001;;;11.51;100.0
22775;BME280;11554;51.106;3.684;2023-03-21T18:00:00;101099.7;;;11.36;100.0
22775;BME280;11554;51.106;3.684;2023-03-21T18:05:00;101097.03;;;11.25;100.0
22775;BME280;11554;51.106;3.684;2023-03-21T18:10:00;101093.12999999999;;;11.11;100.0
22775;BME280;11554;51.106;3.684;2023-03-21T18:15:00;101098.32;;;10.97;100.0
22775;BME280;11554;51.106;3.684;2023-03-21T18:20:00;101092.48999999999;;;10.84;100.0
22775;BME280;11554;51.106;3.684;2023-03-21T18:25:00;101089.5;;;10.70;100.0
22775;BME280;11554;51.106;3.684;2023-03-21T18:30:00;101090.11;;;10.57;100.0
22775;BME280;11554;51.106;3.684;2023-03-21T18:35:00;101082.56;;;10.46;100.0
22775;BME280;11554;51.106;3.684;2023-03-21T18:40:00;101084.3;;;10.36;100.0
22775;BME280;11554;51.106;3.684;2023-03-21T18:45:00;101082.44;;;10.26;100.0
22775;BME280;11554;51.106;3.684;2023-03-21T18:50:00;101091.18;;;10.09;100.0
22775;BME280;11554;51.106;3.684;2023-03-21T18:55:00;101090.95;;;10.03;100.0
22775;BME280;11554;51.106;3.684;2023-03-21T19:00:00;101089.15;;;9.91;100.0
22775;BME280;11554;51.106;3.684;2023-03-21T19:05:00;101083.45000000001;;;9.82;100.0
22775;BME280;11554;51.106;3.684;2023-03-21T19:10:00;101087.01999999999;;;9.73;100.0
22775;BME280;11554;51.106;3.684;2023-03-21T19:15:00;101092.22;;;9.59;100.0
22775;BME280;11554;51.106;3.684;2023-03-21T19:20:00;101091.2;;;9.51;100.0
22775;BME280;11554;51.106;3.684;2023-03-21T19:25:00;101088.11;;;9.46;100.0
22775;BME280;11554;51.106;3.684;2023-03-21T19:30:00;101095.34;;;9.41;100.0
22775;BME280;11554;51.106;3.684;2023-03-21T19:35:00;101094.76;;;9.35;100.0
22775;BME280;11554;51.106;3.684;2023-03-21T19:40:00;101088.36;;;9.24;100.0
22775;BME280;11554;51.106;3.684;2023-03-21T19:45:00;101087.37;;;9.17;100.0
22775;BME280;11554;51.106;3.684;2023-03-21T19:50:00;101092.4;;;9.07;100.0
22775;BME280;11554;51.106;3.684;2023-03-21T19:55:00;101095.54000000001;;;8.97;100.0
22775;BME280;11554;51.106;3.684;2023-03-21T20:00:00;101096.88;;;8.91;100.0
22775;BME280;11554;51.106;3.684;2023-03-21T20:05:00;101087.27;;;8.95;100.0
22775;BME280;11554;51.106;3.684;2023-03-21T20:10:00;101090.03;;;8.95;100.0
22775;BME280;11554;51.106;3.684;2023-03-21T20:15:00;101084.56;;;8.86;100.0
22775;BME280;11554;51.106;3.684;2023-03-21T20:20:00;101084.38;;;8.79;100.0
22775;BME280;11554;51.106;3.684;2023-03-21T20:25:00;101081.7;;;8.67;100.0
22775;BME280;11554;51.106;3.684;2023-03-21T20:30:00;101077.92;;;8.67;100.0
22775;BME280;11554;51.106;3.684;2023-03-21T20:35:00;101076.95;;;8.64;100.0
22775;BME280;11554;51.106;3.684;2023-03-21T20:40:00;101069.72;;;8.61;100.0
22775;BME280;11554;51.106;3.684;2023-03-21T20:45:00;101061.37999999999;;;8.49;100.0
22775;BME280;11554;51.106;3.684;2023-03-21T20:50:00;101057.67;;;8.45;100.0
22775;BME280;11554;51.106;3.684;2023-03-21T20:55:00;101061.83;;;8.41;100.0
22775;BME280;11554;51.106;3.684;2023-03-21T21:00:00;101063.23;;;8.36;100.0
22775;BME280;11554;51.106;3.684;2023-03-21T21:05:00;101058.24;;;8.31;100.0
22775;BME280;11554;51.106;3.684;2023-03-21T21:10:00;101052.70000000001;;;8.24;100.0
22775;BME280;11554;51.106;3.684;2023-03-21T21:15:00;101046.54000000001;;;8.16;100.0
22775;BME280;11554;51.106;3.684;2023-03-21T21:20:00;101045.03;;;8.12;100.0
22775;BME280;11554;51.106;3.684;2023-03-21T21:25:00;101049.86;;;8.03;100.0
22775;BME280;11554;51.106;3.684;2023-03-21T21:30:00;101045.01000000001;;;7.90;100.0
22775;BME280;11554;51.106;3.684;2023-03-21T21:35:00;101031.17;;;7.83;100.0
22775;BME280;11554;51.106;3.684;2023-03-21T21:40:00;101028.7;;;7.73;100.0
22775;BME280;11554;51.106;3.684;2023-03-21T21:45:00;101025.23;;;7.66;100.0
22775;BME280;11554;51.106;3.684;2023-03-21T21:50:00;101022.69;;;7.64;100.0
22775;BME280;11554;51.106;3.684;2023-03-21T21:55:00;101023.67;;;7.57;100.0
22775;BME280;11554;51.106;3.684;2023-03-21T22:00:00;101016.94;;;7.53;100.0
22775;BME280;11554;51.106;3.684;2023-03-21T22:05:00;101020.15;;;7.53;100.0
22775;BME280;11554;51.106;3.684;2023-03-21T22:10:00;101020.14;;;7.50;100.0
22775;BME280;11554;51.106;3.684;2023-03-21T22:15:00;101012.55;;;7.47;100.0
22775;BME280;11554;51.106;3.684;2023-03-21T22:20:00;101012.83;;;7.43;100.0
22775;BME280;11554;51.106;3.684;2023-03-21T22:25:00;100997.97;;;7.40;100.0
22775;BME280;11554;51.106;3.684;2023-03-21T22:30:00;100996.53;;;7.38;100.0
22775;BME280;11554;51.106;3.684;2023-03-21T22:35:00;100985.41;;;7.34;100.0
22775;BME280;11554;51.106;3.684;2023-03-21T22:40:00;100983.12;;;7.24;100.0
22775;BME280;11554;51.106;3.684;2023-03-21T22:45:00;100978.53;;;7.14;100.0
22775;BME280;11554;51.106;3.684;2023-03-21T22:50:00;100969.37000000001;;;7.10;100.0
22775;BME280;11554;51.106;3.684;2023-03-21T22:55:00;100959.93999999999;;;6.99;100.0
22775;BME280;11554;51.106;3.684;2023-03-21T23:00:00;100955.08;;;7.10;100.0
22775;BME280;11554;51.106;3.684;2023-03-21T23:05:00;100949.77;;;7.18;100.0
22775;BME280;11554;51.106;3.684;2023-03-21T23:10:00;100950.25;;;7.27;100.0
22775;BME280;11554;51.106;3.684;2023-03-21T23:15:00;100943.59;;;7.27;100.0
22775;BME280;11554;51.106;3.684;2023-03-21T23:20:00;100936.56;;;7.33;100.0
22775;BME280;11554;51.106;3.684;2023-03-21T23:25:00;100933.87;;;7.33;100.0
22775;BME280;11554;51.106;3.684;2023-03-21T23:30:00;100935.38;;;7.38;100.0
22775;BME280;11554;51.106;3.684;2023-03-21T23:35:00;100925.64;;;7.41;100.0
22775;BME280;11554;51.106;3.684;2023-03-21T23:40:00;100921.06999999999;;;7.34;100.0
22775;BME280;11554;51.106;3.684;2023-03-21T23:45:00;100911.99;;;7.28;100.0
22775;BME280;11554;51.106;3.684;2023-03-21T23:50:00;100903.44;;;7.38;100.0
22775;BME280;11554;51.106;3.684;2023-03-21T23:55:00;100891.18999999999;;;7.37;100.0
